sensor_id;sensor_type;location;lat;lon;timestamp;P1;durP1;ratioP1;P2;durP2;ratioP2
14306;SDS011;7237;49.500;11.400;2022-12-31T00:00:11;2.87;;;1.80;;
14306;SDS011;7237;49.500;11.400;2022-12-31T00:02:39;0.83;;;0.83;;
14306;SDS011;7237;49.500;11.400;2022-12-31T00:05:08;2.43;;;1.20;;
14306;SDS011;7237;49.500;11.400;2022-12-31T00:07:35;2.73;;;1.40;;
14306;SDS011;7237;49.500;11.400;2022-12-31T00:10:02;1.77;;;1.13;;
14306;SDS011;7237;49.500;11.400;2022-12-31T00:12:29;1.40;;;1.10;;
14306;SDS011;7237;49.500;11.400;2022-12-31T00:14:56;1.07;;;1.00;;
14306;SDS011;7237;49.500;11.400;2022-12-31T00:17:24;1.97;;;1.17;;
14306;SDS011;7237;49.500;11.400;2022-12-31T00:19:51;1.17;;;1.07;;
14306;SDS011;7237;49.500;11.400;2022-12-31T00:22:19;2.23;;;0.97;;
14306;SDS011;7237;49.500;11.400;2022-12-31T00:24:46;1.00;;;1.00;;
14306;SDS011;7237;49.500;11.400;2022-12-31T00:27:13;1.03;;;0.90;;
14306;SDS011;7237;49.500;11.400;2022-12-31T00:29:40;1.67;;;1.50;;
14306;SDS011;7237;49.500;11.400;2022-12-31T00:32:07;1.07;;;0.97;;
14306;SDS011;7237;49.500;11.400;2022-12-31T00:34:34;1.33;;;0.87;;
14306;SDS011;7237;49.500;11.400;2022-12-31T00:37:01;2.90;;;0.90;;
14306;SDS011;7237;49.500;11.400;2022-12-31T00:39:30;1.60;;;0.77;;
14306;SDS011;7237;49.500;11.400;2022-12-31T00:41:57;1.13;;;0.80;;
14306;SDS011;7237;49.500;11.400;2022-12-31T00:44:24;0.63;;;0.63;;
14306;SDS011;7237;49.500;11.400;2022-12-31T00:46:51;0.77;;;0.77;;
14306;SDS011;7237;49.500;11.400;2022-12-31T00:49:18;0.83;;;0.83;;
14306;SDS011;7237;49.500;11.400;2022-12-31T00:51:45;1.03;;;0.80;;
14306;SDS011;7237;49.500;11.400;2022-12-31T00:54:13;0.77;;;0.77;;
14306;SDS011;7237;49.500;11.400;2022-12-31T00:56:41;0.80;;;0.80;;
14306;SDS011;7237;49.500;11.400;2022-12-31T00:59:08;0.53;;;0.53;;
14306;SDS011;7237;49.500;11.400;2022-12-31T01:01:36;0.60;;;0.60;;
14306;SDS011;7237;49.500;11.400;2022-12-31T01:04:04;1.13;;;0.63;;
14306;SDS011;7237;49.500;11.400;2022-12-31T01:06:32;0.90;;;0.90;;
14306;SDS011;7237;49.500;11.400;2022-12-31T01:08:59;0.70;;;0.70;;
14306;SDS011;7237;49.500;11.400;2022-12-31T01:11:26;0.50;;;0.50;;
14306;SDS011;7237;49.500;11.400;2022-12-31T01:13:55;1.40;;;1.00;;
14306;SDS011;7237;49.500;11.400;2022-12-31T01:16:23;0.90;;;0.90;;
14306;SDS011;7237;49.500;11.400;2022-12-31T01:18:50;1.43;;;0.60;;
14306;SDS011;7237;49.500;11.400;2022-12-31T01:21:17;0.37;;;0.37;;
14306;SDS011;7237;49.500;11.400;2022-12-31T01:23:45;0.93;;;0.70;;
14306;SDS011;7237;49.500;11.400;2022-12-31T01:26:12;0.40;;;0.40;;
14306;SDS011;7237;49.500;11.400;2022-12-31T01:28:40;1.80;;;0.70;;
14306;SDS011;7237;49.500;11.400;2022-12-31T01:31:11;0.60;;;0.60;;
14306;SDS011;7237;49.500;11.400;2022-12-31T01:33:38;0.50;;;0.50;;
14306;SDS011;7237;49.500;11.400;2022-12-31T01:36:06;0.80;;;0.80;;
14306;SDS011;7237;49.500;11.400;2022-12-31T01:38:34;0.70;;;0.60;;
14306;SDS011;7237;49.500;11.400;2022-12-31T01:41:01;0.60;;;0.60;;
14306;SDS011;7237;49.500;11.400;2022-12-31T01:43:42;0.87;;;0.50;;
14306;SDS011;7237;49.500;11.400;2022-12-31T01:46:10;0.60;;;0.60;;
14306;SDS011;7237;49.500;11.400;2022-12-31T01:48:38;2.00;;;0.50;;
14306;SDS011;7237;49.500;11.400;2022-12-31T01:51:05;4.70;;;0.77;;
14306;SDS011;7237;49.500;11.400;2022-12-31T01:53:33;0.47;;;0.47;;
14306;SDS011;7237;49.500;11.400;2022-12-31T01:56:00;1.20;;;0.50;;
14306;SDS011;7237;49.500;11.400;2022-12-31T01:58:28;1.03;;;0.50;;
14306;SDS011;7237;49.500;11.400;2022-12-31T02:00:57;0.97;;;0.50;;
14306;SDS011;7237;49.500;11.400;2022-12-31T02:03:26;0.50;;;0.43;;
14306;SDS011;7237;49.500;11.400;2022-12-31T02:05:55;0.40;;;0.40;;
14306;SDS011;7237;49.500;11.400;2022-12-31T02:08:23;0.30;;;0.30;;
14306;SDS011;7237;49.500;11.400;2022-12-31T02:10:51;0.50;;;0.50;;
14306;SDS011;7237;49.500;11.400;2022-12-31T02:13:18;0.63;;;0.50;;
14306;SDS011;7237;49.500;11.400;2022-12-31T02:15:48;0.40;;;0.40;;
14306;SDS011;7237;49.500;11.400;2022-12-31T02:18:19;0.50;;;0.50;;
14306;SDS011;7237;49.500;11.400;2022-12-31T02:20:59;0.30;;;0.30;;
14306;SDS011;7237;49.500;11.400;2022-12-31T02:23:44;1.40;;;0.53;;
14306;SDS011;7237;49.500;11.400;2022-12-31T02:26:24;0.30;;;0.30;;
14306;SDS011;7237;49.500;11.400;2022-12-31T02:29:02;0.50;;;0.30;;
14306;SDS011;7237;49.500;11.400;2022-12-31T02:31:36;0.30;;;0.30;;
14306;SDS011;7237;49.500;11.400;2022-12-31T02:34:05;1.03;;;0.47;;
14306;SDS011;7237;49.500;11.400;2022-12-31T02:36:33;0.60;;;0.60;;
14306;SDS011;7237;49.500;11.400;2022-12-31T02:39:03;0.43;;;0.43;;
14306;SDS011;7237;49.500;11.400;2022-12-31T02:41:31;0.33;;;0.33;;
14306;SDS011;7237;49.500;11.400;2022-12-31T02:44:21;1.13;;;0.50;;
14306;SDS011;7237;49.500;11.400;2022-12-31T02:46:51;0.30;;;0.30;;
14306;SDS011;7237;49.500;11.400;2022-12-31T02:49:22;0.20;;;0.20;;
14306;SDS011;7237;49.500;11.400;2022-12-31T02:51:52;0.43;;;0.43;;
14306;SDS011;7237;49.500;11.400;2022-12-31T02:54:27;0.57;;;0.50;;
14306;SDS011;7237;49.500;11.400;2022-12-31T02:56:58;2.10;;;0.60;;
14306;SDS011;7237;49.500;11.400;2022-12-31T02:59:30;0.30;;;0.30;;
14306;SDS011;7237;49.500;11.400;2022-12-31T03:02:18;0.50;;;0.50;;
14306;SDS011;7237;49.500;11.400;2022-12-31T03:04:47;0.30;;;0.30;;
14306;SDS011;7237;49.500;11.400;2022-12-31T03:07:17;0.30;;;0.30;;
14306;SDS011;7237;49.500;11.400;2022-12-31T03:09:45;0.30;;;0.30;;
14306;SDS011;7237;49.500;11.400;2022-12-31T03:12:12;0.70;;;0.30;;
14306;SDS011;7237;49.500;11.400;2022-12-31T03:14:58;2.00;;;0.30;;
14306;SDS011;7237;49.500;11.400;2022-12-31T03:17:26;0.77;;;0.40;;
14306;SDS011;7237;49.500;11.400;2022-12-31T03:19:53;0.33;;;0.33;;
14306;SDS011;7237;49.500;11.400;2022-12-31T03:22:39;0.77;;;0.50;;
14306;SDS011;7237;49.500;11.400;2022-12-31T03:25:08;0.40;;;0.40;;
14306;SDS011;7237;49.500;11.400;2022-12-31T03:27:53;0.20;;;0.20;;
14306;SDS011;7237;49.500;11.400;2022-12-31T03:30:21;0.30;;;0.30;;
14306;SDS011;7237;49.500;11.400;2022-12-31T03:32:49;0.40;;;0.40;;
14306;SDS011;7237;49.500;11.400;2022-12-31T03:35:17;0.87;;;0.40;;
14306;SDS011;7237;49.500;11.400;2022-12-31T03:37:45;0.37;;;0.37;;
14306;SDS011;7237;49.500;11.400;2022-12-31T03:40:13;0.47;;;0.43;;
14306;SDS011;7237;49.500;11.400;2022-12-31T03:42:40;0.43;;;0.43;;
14306;SDS011;7237;49.500;11.400;2022-12-31T03:45:08;0.30;;;0.30;;
14306;SDS011;7237;49.500;11.400;2022-12-31T03:47:35;0.40;;;0.40;;
14306;SDS011;7237;49.500;11.400;2022-12-31T03:50:04;0.97;;;0.30;;
14306;SDS011;7237;49.500;11.400;2022-12-31T03:52:31;0.47;;;0.30;;
14306;SDS011;7237;49.500;11.400;2022-12-31T03:54:58;0.53;;;0.40;;
14306;SDS011;7237;49.500;11.400;2022-12-31T03:57:26;0.23;;;0.23;;
14306;SDS011;7237;49.500;11.400;2022-12-31T03:59:54;0.90;;;0.50;;
14306;SDS011;7237;49.500;11.400;2022-12-31T04:02:21;0.37;;;0.37;;
14306;SDS011;7237;49.500;11.400;2022-12-31T04:04:48;0.47;;;0.40;;
14306;SDS011;7237;49.500;11.400;2022-12-31T04:07:16;0.43;;;0.43;;
14306;SDS011;7237;49.500;11.400;2022-12-31T04:09:43;0.67;;;0.40;;
14306;SDS011;7237;49.500;11.400;2022-12-31T04:12:10;0.37;;;0.37;;
14306;SDS011;7237;49.500;11.400;2022-12-31T04:14:37;0.90;;;0.53;;
14306;SDS011;7237;49.500;11.400;2022-12-31T04:17:04;2.80;;;0.50;;
14306;SDS011;7237;49.500;11.400;2022-12-31T04:19:31;0.50;;;0.50;;
14306;SDS011;7237;49.500;11.400;2022-12-31T04:21:58;0.60;;;0.60;;
14306;SDS011;7237;49.500;11.400;2022-12-31T04:24:27;0.30;;;0.30;;
14306;SDS011;7237;49.500;11.400;2022-12-31T04:26:54;0.50;;;0.50;;
14306;SDS011;7237;49.500;11.400;2022-12-31T04:29:21;0.87;;;0.50;;
14306;SDS011;7237;49.500;11.400;2022-12-31T04:31:48;0.40;;;0.40;;
14306;SDS011;7237;49.500;11.400;2022-12-31T04:34:15;2.97;;;0.60;;
14306;SDS011;7237;49.500;11.400;2022-12-31T04:36:42;0.43;;;0.40;;
14306;SDS011;7237;49.500;11.400;2022-12-31T04:39:09;0.40;;;0.40;;
14306;SDS011;7237;49.500;11.400;2022-12-31T04:41:38;0.77;;;0.40;;
14306;SDS011;7237;49.500;11.400;2022-12-31T04:44:05;0.80;;;0.40;;
14306;SDS011;7237;49.500;11.400;2022-12-31T04:46:32;2.97;;;0.43;;
14306;SDS011;7237;49.500;11.400;2022-12-31T04:48:59;0.40;;;0.40;;
14306;SDS011;7237;49.500;11.400;2022-12-31T04:51:27;0.53;;;0.53;;
14306;SDS011;7237;49.500;11.400;2022-12-31T04:53:54;0.67;;;0.40;;
14306;SDS011;7237;49.500;11.400;2022-12-31T04:56:21;0.43;;;0.43;;
14306;SDS011;7237;49.500;11.400;2022-12-31T04:58:50;0.50;;;0.50;;
14306;SDS011;7237;49.500;11.400;2022-12-31T05:01:17;1.90;;;0.70;;
14306;SDS011;7237;49.500;11.400;2022-12-31T05:03:44;0.47;;;0.47;;
14306;SDS011;7237;49.500;11.400;2022-12-31T05:06:13;0.67;;;0.50;;
14306;SDS011;7237;49.500;11.400;2022-12-31T05:08:41;0.60;;;0.60;;
14306;SDS011;7237;49.500;11.400;2022-12-31T05:11:08;0.50;;;0.50;;
14306;SDS011;7237;49.500;11.400;2022-12-31T05:13:35;0.50;;;0.50;;
14306;SDS011;7237;49.500;11.400;2022-12-31T05:16:04;0.70;;;0.50;;
14306;SDS011;7237;49.500;11.400;2022-12-31T05:18:31;0.93;;;0.60;;
14306;SDS011;7237;49.500;11.400;2022-12-31T05:20:59;1.83;;;0.40;;
14306;SDS011;7237;49.500;11.400;2022-12-31T05:23:26;1.07;;;0.77;;
14306;SDS011;7237;49.500;11.400;2022-12-31T05:25:53;1.37;;;0.53;;
14306;SDS011;7237;49.500;11.400;2022-12-31T05:28:20;0.40;;;0.40;;
14306;SDS011;7237;49.500;11.400;2022-12-31T05:30:48;0.50;;;0.50;;
14306;SDS011;7237;49.500;11.400;2022-12-31T05:33:16;0.60;;;0.60;;
14306;SDS011;7237;49.500;11.400;2022-12-31T05:35:44;0.60;;;0.60;;
14306;SDS011;7237;49.500;11.400;2022-12-31T05:38:11;1.23;;;0.50;;
14306;SDS011;7237;49.500;11.400;2022-12-31T05:40:38;0.77;;;0.40;;
14306;SDS011;7237;49.500;11.400;2022-12-31T05:43:05;0.57;;;0.57;;
14306;SDS011;7237;49.500;11.400;2022-12-31T05:45:32;3.73;;;0.57;;
14306;SDS011;7237;49.500;11.400;2022-12-31T05:47:59;0.63;;;0.63;;
14306;SDS011;7237;49.500;11.400;2022-12-31T05:50:28;0.60;;;0.60;;
14306;SDS011;7237;49.500;11.400;2022-12-31T05:52:55;0.57;;;0.40;;
14306;SDS011;7237;49.500;11.400;2022-12-31T05:55:22;0.40;;;0.40;;
14306;SDS011;7237;49.500;11.400;2022-12-31T05:57:49;0.70;;;0.60;;
14306;SDS011;7237;49.500;11.400;2022-12-31T06:00:16;0.97;;;0.70;;
14306;SDS011;7237;49.500;11.400;2022-12-31T06:02:43;0.53;;;0.50;;
14306;SDS011;7237;49.500;11.400;2022-12-31T06:05:10;1.23;;;0.90;;
14306;SDS011;7237;49.500;11.400;2022-12-31T06:07:39;0.40;;;0.40;;
14306;SDS011;7237;49.500;11.400;2022-12-31T06:10:06;0.50;;;0.50;;
14306;SDS011;7237;49.500;11.400;2022-12-31T06:12:34;1.00;;;0.40;;
14306;SDS011;7237;49.500;11.400;2022-12-31T06:15:01;0.70;;;0.70;;
14306;SDS011;7237;49.500;11.400;2022-12-31T06:17:28;0.53;;;0.53;;
14306;SDS011;7237;49.500;11.400;2022-12-31T06:19:56;0.53;;;0.43;;
14306;SDS011;7237;49.500;11.400;2022-12-31T06:22:24;0.67;;;0.57;;
14306;SDS011;7237;49.500;11.400;2022-12-31T06:24:53;1.30;;;0.70;;
14306;SDS011;7237;49.500;11.400;2022-12-31T06:27:20;0.40;;;0.40;;
14306;SDS011;7237;49.500;11.400;2022-12-31T06:29:47;0.60;;;0.60;;
14306;SDS011;7237;49.500;11.400;2022-12-31T06:32:15;1.53;;;0.60;;
14306;SDS011;7237;49.500;11.400;2022-12-31T06:34:42;1.90;;;0.80;;
14306;SDS011;7237;49.500;11.400;2022-12-31T06:37:09;1.67;;;0.60;;
14306;SDS011;7237;49.500;11.400;2022-12-31T06:39:36;1.10;;;0.70;;
14306;SDS011;7237;49.500;11.400;2022-12-31T06:42:04;0.50;;;0.50;;
14306;SDS011;7237;49.500;11.400;2022-12-31T06:44:31;1.30;;;0.57;;
14306;SDS011;7237;49.500;11.400;2022-12-31T06:46:59;0.70;;;0.70;;
14306;SDS011;7237;49.500;11.400;2022-12-31T06:49:26;0.60;;;0.60;;
14306;SDS011;7237;49.500;11.400;2022-12-31T06:51:53;0.93;;;0.60;;
14306;SDS011;7237;49.500;11.400;2022-12-31T06:54:20;0.70;;;0.70;;
14306;SDS011;7237;49.500;11.400;2022-12-31T06:56:47;0.83;;;0.63;;
14306;SDS011;7237;49.500;11.400;2022-12-31T06:59:22;0.50;;;0.50;;
14306;SDS011;7237;49.500;11.400;2022-12-31T07:01:54;0.50;;;0.50;;
14306;SDS011;7237;49.500;11.400;2022-12-31T07:07:10;1.67;;;0.83;;
14306;SDS011;7237;49.500;11.400;2022-12-31T07:09:41;1.37;;;0.63;;
14306;SDS011;7237;49.500;11.400;2022-12-31T07:12:25;0.87;;;0.83;;
14306;SDS011;7237;49.500;11.400;2022-12-31T07:14:57;1.50;;;0.70;;
14306;SDS011;7237;49.500;11.400;2022-12-31T07:17:27;0.63;;;0.60;;
14306;SDS011;7237;49.500;11.400;2022-12-31T07:19:59;2.10;;;0.80;;
14306;SDS011;7237;49.500;11.400;2022-12-31T07:22:27;1.43;;;0.67;;
14306;SDS011;7237;49.500;11.400;2022-12-31T07:24:54;0.80;;;0.80;;
14306;SDS011;7237;49.500;11.400;2022-12-31T07:27:29;1.17;;;0.63;;
14306;SDS011;7237;49.500;11.400;2022-12-31T07:30:02;1.73;;;0.60;;
14306;SDS011;7237;49.500;11.400;2022-12-31T07:35:14;0.53;;;0.53;;
14306;SDS011;7237;49.500;11.400;2022-12-31T07:37:44;0.40;;;0.40;;
14306;SDS011;7237;49.500;11.400;2022-12-31T07:40:14;0.87;;;0.50;;
14306;SDS011;7237;49.500;11.400;2022-12-31T07:42:44;1.80;;;0.80;;
14306;SDS011;7237;49.500;11.400;2022-12-31T07:45:16;0.70;;;0.70;;
14306;SDS011;7237;49.500;11.400;2022-12-31T07:47:45;0.80;;;0.60;;
14306;SDS011;7237;49.500;11.400;2022-12-31T07:50:13;1.30;;;0.90;;
14306;SDS011;7237;49.500;11.400;2022-12-31T07:52:40;1.03;;;0.73;;
14306;SDS011;7237;49.500;11.400;2022-12-31T07:55:08;0.83;;;0.60;;
14306;SDS011;7237;49.500;11.400;2022-12-31T07:57:37;1.07;;;0.70;;
14306;SDS011;7237;49.500;11.400;2022-12-31T08:00:07;0.70;;;0.70;;
14306;SDS011;7237;49.500;11.400;2022-12-31T08:05:24;1.07;;;0.50;;
14306;SDS011;7237;49.500;11.400;2022-12-31T08:07:55;0.60;;;0.60;;
14306;SDS011;7237;49.500;11.400;2022-12-31T08:10:26;0.40;;;0.40;;
14306;SDS011;7237;49.500;11.400;2022-12-31T08:12:59;1.57;;;0.60;;
14306;SDS011;7237;49.500;11.400;2022-12-31T08:15:27;1.60;;;0.60;;
14306;SDS011;7237;49.500;11.400;2022-12-31T08:17:54;1.20;;;0.73;;
14306;SDS011;7237;49.500;11.400;2022-12-31T08:20:23;0.63;;;0.60;;
14306;SDS011;7237;49.500;11.400;2022-12-31T08:23:03;0.70;;;0.67;;
14306;SDS011;7237;49.500;11.400;2022-12-31T08:25:36;0.70;;;0.70;;
14306;SDS011;7237;49.500;11.400;2022-12-31T08:28:09;1.10;;;0.53;;
14306;SDS011;7237;49.500;11.400;2022-12-31T08:30:40;0.60;;;0.60;;
14306;SDS011;7237;49.500;11.400;2022-12-31T08:33:11;0.40;;;0.40;;
14306;SDS011;7237;49.500;11.400;2022-12-31T08:35:46;0.73;;;0.70;;
14306;SDS011;7237;49.500;11.400;2022-12-31T08:38:21;0.57;;;0.57;;
14306;SDS011;7237;49.500;11.400;2022-12-31T08:40:53;0.53;;;0.53;;
14306;SDS011;7237;49.500;11.400;2022-12-31T08:43:30;2.20;;;1.63;;
14306;SDS011;7237;49.500;11.400;2022-12-31T08:45:58;0.60;;;0.60;;
14306;SDS011;7237;49.500;11.400;2022-12-31T08:48:28;0.60;;;0.60;;
14306;SDS011;7237;49.500;11.400;2022-12-31T08:50:58;1.17;;;0.80;;
14306;SDS011;7237;49.500;11.400;2022-12-31T08:53:25;0.70;;;0.70;;
14306;SDS011;7237;49.500;11.400;2022-12-31T08:55:54;0.50;;;0.50;;
14306;SDS011;7237;49.500;11.400;2022-12-31T08:58:27;0.77;;;0.70;;
14306;SDS011;7237;49.500;11.400;2022-12-31T09:00:57;2.23;;;0.63;;
14306;SDS011;7237;49.500;11.400;2022-12-31T09:03:28;0.70;;;0.70;;
14306;SDS011;7237;49.500;11.400;2022-12-31T09:06:01;2.53;;;0.70;;
14306;SDS011;7237;49.500;11.400;2022-12-31T09:08:34;0.63;;;0.50;;
14306;SDS011;7237;49.500;11.400;2022-12-31T09:11:06;0.60;;;0.60;;
14306;SDS011;7237;49.500;11.400;2022-12-31T09:13:39;0.97;;;0.73;;
14306;SDS011;7237;49.500;11.400;2022-12-31T09:16:12;1.50;;;0.73;;
14306;SDS011;7237;49.500;11.400;2022-12-31T09:18:43;0.63;;;0.63;;
14306;SDS011;7237;49.500;11.400;2022-12-31T09:21:13;0.50;;;0.50;;
14306;SDS011;7237;49.500;11.400;2022-12-31T09:23:41;0.53;;;0.50;;
14306;SDS011;7237;49.500;11.400;2022-12-31T09:26:12;0.60;;;0.50;;
14306;SDS011;7237;49.500;11.400;2022-12-31T09:28:41;1.37;;;0.70;;
14306;SDS011;7237;49.500;11.400;2022-12-31T09:31:12;1.00;;;0.60;;
14306;SDS011;7237;49.500;11.400;2022-12-31T09:33:41;1.95;;;1.20;;
14306;SDS011;7237;49.500;11.400;2022-12-31T09:36:15;1.77;;;1.10;;
14306;SDS011;7237;49.500;11.400;2022-12-31T09:38:47;2.30;;;1.17;;
14306;SDS011;7237;49.500;11.400;2022-12-31T09:41:22;1.80;;;1.27;;
14306;SDS011;7237;49.500;11.400;2022-12-31T09:46:55;0.70;;;0.70;;
14306;SDS011;7237;49.500;11.400;2022-12-31T09:49:34;1.10;;;1.00;;
14306;SDS011;7237;49.500;11.400;2022-12-31T09:52:08;0.80;;;0.80;;
14306;SDS011;7237;49.500;11.400;2022-12-31T09:54:43;1.60;;;0.73;;
14306;SDS011;7237;49.500;11.400;2022-12-31T09:57:19;0.60;;;0.60;;
14306;SDS011;7237;49.500;11.400;2022-12-31T09:59:50;0.53;;;0.53;;
14306;SDS011;7237;49.500;11.400;2022-12-31T10:02:20;0.70;;;0.60;;
14306;SDS011;7237;49.500;11.400;2022-12-31T10:04:58;0.87;;;0.87;;
14306;SDS011;7237;49.500;11.400;2022-12-31T10:07:31;0.63;;;0.60;;
14306;SDS011;7237;49.500;11.400;2022-12-31T10:10:04;0.83;;;0.80;;
14306;SDS011;7237;49.500;11.400;2022-12-31T10:12:35;1.37;;;0.93;;
14306;SDS011;7237;49.500;11.400;2022-12-31T10:15:07;0.70;;;0.70;;
14306;SDS011;7237;49.500;11.400;2022-12-31T10:17:46;0.70;;;0.70;;
14306;SDS011;7237;49.500;11.400;2022-12-31T10:23:18;1.87;;;0.70;;
14306;SDS011;7237;49.500;11.400;2022-12-31T10:26:00;0.90;;;0.40;;
14306;SDS011;7237;49.500;11.400;2022-12-31T10:28:35;0.47;;;0.47;;
14306;SDS011;7237;49.500;11.400;2022-12-31T10:31:09;0.52;;;0.52;;
14306;SDS011;7237;49.500;11.400;2022-12-31T10:33:41;0.55;;;0.50;;
14306;SDS011;7237;49.500;11.400;2022-12-31T10:36:10;0.60;;;0.60;;
14306;SDS011;7237;49.500;11.400;2022-12-31T10:38:44;0.45;;;0.45;;
14306;SDS011;7237;49.500;11.400;2022-12-31T10:44:11;0.60;;;0.57;;
14306;SDS011;7237;49.500;11.400;2022-12-31T10:46:49;0.50;;;0.50;;
14306;SDS011;7237;49.500;11.400;2022-12-31T10:49:34;0.50;;;0.50;;
14306;SDS011;7237;49.500;11.400;2022-12-31T10:52:49;1.98;;;0.90;;
14306;SDS011;7237;49.500;11.400;2022-12-31T10:58:12;0.98;;;0.80;;
14306;SDS011;7237;49.500;11.400;2022-12-31T11:00:49;0.50;;;0.50;;
14306;SDS011;7237;49.500;11.400;2022-12-31T11:03:38;1.77;;;0.68;;
14306;SDS011;7237;49.500;11.400;2022-12-31T11:06:16;0.68;;;0.68;;
14306;SDS011;7237;49.500;11.400;2022-12-31T11:09:00;0.95;;;0.70;;
14306;SDS011;7237;49.500;11.400;2022-12-31T11:11:32;2.03;;;0.65;;
14306;SDS011;7237;49.500;11.400;2022-12-31T11:14:22;0.50;;;0.45;;
14306;SDS011;7237;49.500;11.400;2022-12-31T11:16:56;1.23;;;0.82;;
14306;SDS011;7237;49.500;11.400;2022-12-31T11:19:29;0.43;;;0.43;;
14306;SDS011;7237;49.500;11.400;2022-12-31T11:22:03;0.63;;;0.63;;
14306;SDS011;7237;49.500;11.400;2022-12-31T11:24:35;0.50;;;0.50;;
14306;SDS011;7237;49.500;11.400;2022-12-31T11:27:11;0.47;;;0.40;;
14306;SDS011;7237;49.500;11.400;2022-12-31T11:29:45;1.17;;;0.90;;
14306;SDS011;7237;49.500;11.400;2022-12-31T11:32:17;0.45;;;0.45;;
14306;SDS011;7237;49.500;11.400;2022-12-31T11:34:58;0.60;;;0.60;;
14306;SDS011;7237;49.500;11.400;2022-12-31T11:37:31;1.40;;;0.60;;
14306;SDS011;7237;49.500;11.400;2022-12-31T11:40:00;0.50;;;0.50;;
14306;SDS011;7237;49.500;11.400;2022-12-31T11:42:35;0.60;;;0.60;;
14306;SDS011;7237;49.500;11.400;2022-12-31T11:45:13;0.70;;;0.70;;
14306;SDS011;7237;49.500;11.400;2022-12-31T11:47:42;0.85;;;0.77;;
14306;SDS011;7237;49.500;11.400;2022-12-31T11:50:19;0.70;;;0.70;;
14306;SDS011;7237;49.500;11.400;2022-12-31T11:52:51;0.95;;;0.60;;
14306;SDS011;7237;49.500;11.400;2022-12-31T11:55:23;0.73;;;0.73;;
14306;SDS011;7237;49.500;11.400;2022-12-31T11:57:53;2.55;;;0.68;;
14306;SDS011;7237;49.500;11.400;2022-12-31T12:00:22;1.60;;;0.75;;
14306;SDS011;7237;49.500;11.400;2022-12-31T12:02:51;3.35;;;1.00;;
14306;SDS011;7237;49.500;11.400;2022-12-31T12:05:19;1.73;;;0.80;;
14306;SDS011;7237;49.500;11.400;2022-12-31T12:07:46;0.82;;;0.63;;
14306;SDS011;7237;49.500;11.400;2022-12-31T12:10:15;0.80;;;0.60;;
14306;SDS011;7237;49.500;11.400;2022-12-31T12:12:43;0.80;;;0.60;;
14306;SDS011;7237;49.500;11.400;2022-12-31T12:15:12;0.80;;;0.80;;
14306;SDS011;7237;49.500;11.400;2022-12-31T12:17:47;1.05;;;0.73;;
14306;SDS011;7237;49.500;11.400;2022-12-31T12:20:15;0.80;;;0.80;;
14306;SDS011;7237;49.500;11.400;2022-12-31T12:22:47;1.42;;;0.75;;
14306;SDS011;7237;49.500;11.400;2022-12-31T12:25:15;1.98;;;0.80;;
14306;SDS011;7237;49.500;11.400;2022-12-31T12:27:43;1.52;;;0.95;;
14306;SDS011;7237;49.500;11.400;2022-12-31T12:30:10;1.60;;;0.65;;
14306;SDS011;7237;49.500;11.400;2022-12-31T12:32:37;1.85;;;0.70;;
14306;SDS011;7237;49.500;11.400;2022-12-31T12:35:15;2.97;;;0.90;;
14306;SDS011;7237;49.500;11.400;2022-12-31T12:37:45;1.05;;;0.70;;
14306;SDS011;7237;49.500;11.400;2022-12-31T12:40:19;0.70;;;0.70;;
14306;SDS011;7237;49.500;11.400;2022-12-31T12:42:48;0.80;;;0.70;;
14306;SDS011;7237;49.500;11.400;2022-12-31T12:45:16;0.93;;;0.73;;
14306;SDS011;7237;49.500;11.400;2022-12-31T12:47:43;0.90;;;0.90;;
14306;SDS011;7237;49.500;11.400;2022-12-31T12:50:12;0.70;;;0.70;;
14306;SDS011;7237;49.500;11.400;2022-12-31T12:53:04;0.65;;;0.65;;
14306;SDS011;7237;49.500;11.400;2022-12-31T12:55:35;2.17;;;0.68;;
14306;SDS011;7237;49.500;11.400;2022-12-31T12:58:11;0.68;;;0.68;;
14306;SDS011;7237;49.500;11.400;2022-12-31T13:00:41;2.78;;;0.70;;
14306;SDS011;7237;49.500;11.400;2022-12-31T13:03:20;2.00;;;0.60;;
14306;SDS011;7237;49.500;11.400;2022-12-31T13:05:57;2.60;;;0.80;;
14306;SDS011;7237;49.500;11.400;2022-12-31T13:08:32;0.93;;;0.93;;
14306;SDS011;7237;49.500;11.400;2022-12-31T13:11:09;0.57;;;0.52;;
14306;SDS011;7237;49.500;11.400;2022-12-31T13:13:41;0.95;;;0.70;;
14306;SDS011;7237;49.500;11.400;2022-12-31T13:16:11;1.27;;;1.00;;
14306;SDS011;7237;49.500;11.400;2022-12-31T13:18:44;0.93;;;0.80;;
14306;SDS011;7237;49.500;11.400;2022-12-31T13:23:58;2.45;;;0.60;;
14306;SDS011;7237;49.500;11.400;2022-12-31T13:26:27;0.60;;;0.50;;
14306;SDS011;7237;49.500;11.400;2022-12-31T13:28:57;0.80;;;0.77;;
14306;SDS011;7237;49.500;11.400;2022-12-31T13:31:25;0.70;;;0.70;;
14306;SDS011;7237;49.500;11.400;2022-12-31T13:33:55;1.02;;;0.80;;
14306;SDS011;7237;49.500;11.400;2022-12-31T13:36:24;1.52;;;1.10;;
14306;SDS011;7237;49.500;11.400;2022-12-31T13:38:53;1.05;;;0.82;;
14306;SDS011;7237;49.500;11.400;2022-12-31T13:41:24;1.77;;;1.23;;
14306;SDS011;7237;49.500;11.400;2022-12-31T13:43:54;1.20;;;0.90;;
14306;SDS011;7237;49.500;11.400;2022-12-31T13:46:24;1.42;;;1.17;;
14306;SDS011;7237;49.500;11.400;2022-12-31T13:48:52;1.50;;;1.25;;
14306;SDS011;7237;49.500;11.400;2022-12-31T13:51:21;1.50;;;1.40;;
14306;SDS011;7237;49.500;11.400;2022-12-31T13:53:51;1.27;;;1.10;;
14306;SDS011;7237;49.500;11.400;2022-12-31T13:56:21;1.20;;;1.10;;
14306;SDS011;7237;49.500;11.400;2022-12-31T13:58:50;1.63;;;0.88;;
14306;SDS011;7237;49.500;11.400;2022-12-31T14:01:21;2.25;;;1.08;;
14306;SDS011;7237;49.500;11.400;2022-12-31T14:03:51;1.35;;;1.00;;
14306;SDS011;7237;49.500;11.400;2022-12-31T14:06:22;0.93;;;0.93;;
14306;SDS011;7237;49.500;11.400;2022-12-31T14:08:51;2.90;;;1.20;;
14306;SDS011;7237;49.500;11.400;2022-12-31T14:11:19;1.17;;;1.08;;
14306;SDS011;7237;49.500;11.400;2022-12-31T14:13:55;1.13;;;0.90;;
14306;SDS011;7237;49.500;11.400;2022-12-31T14:16:31;1.38;;;1.05;;
14306;SDS011;7237;49.500;11.400;2022-12-31T14:19:03;1.38;;;1.20;;
14306;SDS011;7237;49.500;11.400;2022-12-31T14:21:33;3.38;;;1.35;;
14306;SDS011;7237;49.500;11.400;2022-12-31T14:24:03;1.80;;;1.30;;
14306;SDS011;7237;49.500;11.400;2022-12-31T14:26:32;1.15;;;1.10;;
14306;SDS011;7237;49.500;11.400;2022-12-31T14:29:03;0.88;;;0.88;;
14306;SDS011;7237;49.500;11.400;2022-12-31T14:31:36;1.42;;;0.98;;
14306;SDS011;7237;49.500;11.400;2022-12-31T14:34:10;3.45;;;1.10;;
14306;SDS011;7237;49.500;11.400;2022-12-31T14:36:42;1.45;;;1.00;;
14306;SDS011;7237;49.500;11.400;2022-12-31T14:39:16;3.53;;;1.00;;
14306;SDS011;7237;49.500;11.400;2022-12-31T14:41:48;1.50;;;0.80;;
14306;SDS011;7237;49.500;11.400;2022-12-31T14:44:30;3.25;;;0.90;;
14306;SDS011;7237;49.500;11.400;2022-12-31T14:47:01;1.20;;;1.10;;
14306;SDS011;7237;49.500;11.400;2022-12-31T14:49:34;2.28;;;1.10;;
14306;SDS011;7237;49.500;11.400;2022-12-31T14:52:13;0.95;;;0.88;;
14306;SDS011;7237;49.500;11.400;2022-12-31T14:54:43;0.50;;;0.50;;
14306;SDS011;7237;49.500;11.400;2022-12-31T14:57:10;1.08;;;0.98;;
14306;SDS011;7237;49.500;11.400;2022-12-31T14:59:51;2.13;;;1.00;;
14306;SDS011;7237;49.500;11.400;2022-12-31T15:02:26;3.30;;;1.15;;
14306;SDS011;7237;49.500;11.400;2022-12-31T15:05:03;1.33;;;0.90;;
14306;SDS011;7237;49.500;11.400;2022-12-31T15:07:32;3.97;;;1.30;;
14306;SDS011;7237;49.500;11.400;2022-12-31T15:10:08;1.33;;;1.23;;
14306;SDS011;7237;49.500;11.400;2022-12-31T15:12:44;1.33;;;0.90;;
14306;SDS011;7237;49.500;11.400;2022-12-31T15:15:23;2.27;;;1.23;;
14306;SDS011;7237;49.500;11.400;2022-12-31T15:17:56;1.20;;;0.97;;
14306;SDS011;7237;49.500;11.400;2022-12-31T15:20:34;1.57;;;1.00;;
14306;SDS011;7237;49.500;11.400;2022-12-31T15:23:10;1.70;;;1.17;;
14306;SDS011;7237;49.500;11.400;2022-12-31T15:25:38;1.63;;;1.45;;
14306;SDS011;7237;49.500;11.400;2022-12-31T15:28:07;1.67;;;1.23;;
14306;SDS011;7237;49.500;11.400;2022-12-31T15:30:37;1.00;;;1.00;;